createdAt,value
2022-08-01T00:03:06.628Z,25.30
2022-08-01T00:08:08.744Z,25.30
2022-08-01T00:13:10.952Z,25.20
2022-08-01T00:18:13.082Z,25.00
2022-08-01T00:23:15.224Z,25.10
2022-08-01T00:28:17.441Z,25.00
2022-08-01T00:33:19.600Z,25.00
2022-08-01T00:38:21.815Z,24.80
2022-08-01T00:43:24.105Z,24.80
2022-08-01T00:48:26.320Z,24.80
2022-08-01T00:53:28.651Z,24.60
2022-08-01T00:58:51.031Z,24.50
2022-08-01T01:03:59.194Z,24.40
2022-08-01T01:09:10.817Z,24.20
2022-08-01T01:14:24.395Z,24.30
2022-08-01T01:19:31.865Z,24.20
2022-08-01T01:25:03.577Z,24.30
2022-08-01T01:30:07.000Z,24.20
2022-08-01T01:35:16.070Z,24.10
2022-08-01T01:40:21.015Z,23.80
2022-08-01T01:45:25.801Z,23.70
2022-08-01T01:50:29.580Z,23.90
2022-08-01T01:55:33.863Z,23.90
2022-08-01T02:00:53.830Z,23.70
2022-08-01T02:05:58.033Z,23.70
2022-08-01T02:11:19.351Z,23.50
2022-08-01T02:16:26.015Z,23.60
2022-08-01T02:21:31.947Z,23.70
2022-08-01T02:26:39.985Z,23.80
2022-08-01T02:31:48.093Z,23.50
2022-08-01T02:36:52.207Z,23.40
2022-08-01T02:41:58.707Z,23.30
2022-08-01T02:47:05.594Z,23.00
2022-08-01T02:52:14.670Z,23.10
2022-08-01T02:57:18.853Z,23.00
2022-08-01T03:02:24.833Z,23.10
2022-08-01T03:07:34.154Z,23.20
2022-08-01T03:12:40.139Z,23.00
2022-08-01T03:17:45.472Z,22.90
2022-08-01T03:22:50.160Z,22.90
2022-08-01T03:27:59.023Z,22.90
2022-08-01T03:33:01.225Z,22.80
2022-08-01T03:38:20.000Z,22.50
2022-08-01T03:43:41.128Z,23.00
2022-08-01T03:48:49.320Z,23.00
2022-08-01T03:53:54.401Z,22.80
2022-08-01T03:58:57.029Z,22.90
2022-08-01T04:04:01.265Z,23.10
2022-08-01T04:09:03.727Z,22.80
2022-08-01T04:14:09.237Z,23.20
2022-08-01T04:19:11.688Z,23.00
2022-08-01T04:24:17.397Z,23.10
2022-08-01T04:29:21.674Z,22.90
2022-08-01T04:34:26.283Z,23.10
2022-08-01T04:39:31.871Z,23.10
2022-08-01T04:44:34.565Z,23.20
2022-08-01T04:49:48.899Z,23.10
2022-08-01T04:54:51.566Z,23.30
2022-08-01T04:59:57.710Z,23.30
2022-08-01T05:04:59.895Z,23.30
2022-08-01T05:10:02.231Z,23.30
2022-08-01T05:15:13.200Z,23.30
2022-08-01T05:20:18.049Z,23.00
2022-08-01T05:25:34.413Z,23.40
2022-08-01T05:30:43.377Z,23.40
2022-08-01T05:35:48.684Z,23.40
2022-08-01T05:40:51.667Z,23.40
2022-08-01T05:45:53.806Z,23.40
2022-08-01T05:50:58.741Z,23.60
2022-08-01T05:56:02.624Z,24.20
2022-08-01T06:01:04.725Z,24.00
2022-08-01T06:06:06.895Z,24.10
2022-08-01T06:11:11.463Z,24.40
2022-08-01T06:16:16.507Z,24.40
2022-08-01T06:21:18.659Z,24.70
2022-08-01T06:26:21.186Z,25.10
2022-08-01T06:31:23.371Z,25.30
2022-08-01T06:36:26.519Z,25.50
2022-08-01T06:41:28.779Z,25.90
2022-08-01T06:46:32.436Z,25.60
2022-08-01T06:51:34.840Z,26.10
2022-08-01T06:56:37.428Z,26.10
2022-08-01T07:01:39.631Z,26.10
2022-08-01T07:06:41.807Z,26.30
2022-08-01T07:11:44.007Z,26.70
2022-08-01T07:16:46.427Z,27.10
2022-08-01T07:21:50.242Z,27.10
2022-08-01T07:26:54.968Z,27.20
2022-08-01T07:31:58.979Z,27.40
2022-08-01T07:37:01.075Z,27.30
2022-08-01T07:42:07.680Z,27.70
2022-08-01T07:47:10.620Z,27.90
2022-08-01T07:52:12.723Z,28.00
2022-08-01T07:57:14.937Z,28.10
2022-08-01T08:02:17.150Z,28.30
2022-08-01T08:07:19.567Z,28.50
2022-08-01T08:12:28.533Z,28.80
2022-08-01T08:17:35.590Z,28.70
2022-08-01T08:22:38.850Z,29.00
2022-08-01T08:27:41.009Z,29.20
2022-08-01T08:32:43.063Z,29.10
2022-08-01T08:37:47.605Z,29.10
2022-08-01T08:42:52.084Z,29.10
2022-08-01T08:47:55.711Z,29.00
2022-08-01T08:53:02.313Z,29.40
2022-08-01T08:58:14.255Z,29.40
2022-08-01T09:03:16.644Z,29.50
2022-08-01T09:08:18.787Z,29.70
2022-08-01T09:13:21.008Z,29.70
2022-08-01T09:18:33.086Z,30.00
2022-08-01T09:23:40.515Z,30.10
2022-08-01T09:28:56.838Z,30.20
2022-08-01T09:34:04.907Z,30.30
2022-08-01T09:39:17.030Z,30.20
2022-08-01T09:44:31.412Z,29.90
2022-08-01T09:49:50.998Z,30.30
2022-08-01T09:54:58.757Z,30.30
2022-08-01T10:00:02.314Z,30.20
2022-08-01T10:05:18.731Z,30.30
2022-08-01T10:10:23.685Z,30.30
2022-08-01T10:15:37.181Z,30.30
2022-08-01T10:20:40.928Z,30.50
2022-08-01T10:25:46.877Z,30.40
2022-08-01T10:30:50.177Z,30.60
2022-08-01T10:35:52.814Z,30.50
2022-08-01T10:40:58.032Z,30.80
2022-08-01T10:46:01.561Z,30.90
2022-08-01T10:51:18.354Z,31.20
2022-08-01T10:56:26.854Z,31.40
2022-08-01T11:01:33.910Z,31.50
2022-08-01T11:07:04.457Z,31.50
2022-08-01T11:12:13.191Z,31.40
2022-08-01T11:17:37.832Z,31.20
2022-08-01T11:23:16.715Z,31.00
2022-08-01T11:28:32.465Z,30.80
2022-08-01T11:33:45.973Z,30.50
2022-08-01T11:38:51.027Z,30.90
2022-08-01T11:44:06.996Z,31.00
2022-08-01T11:49:29.010Z,31.30
2022-08-01T11:54:42.115Z,31.50
2022-08-01T12:00:02.370Z,31.90
2022-08-01T12:05:24.715Z,32.40
2022-08-01T12:10:49.537Z,32.60
2022-08-01T12:15:56.459Z,32.90
2022-08-01T12:21:05.707Z,33.10
2022-08-01T12:26:07.854Z,33.20
2022-08-01T12:31:13.914Z,33.50
2022-08-01T12:36:29.161Z,33.80
2022-08-01T12:41:31.301Z,34.20
2022-08-01T12:46:33.696Z,34.60
2022-08-01T12:51:36.509Z,34.90
2022-08-01T12:56:38.633Z,35.00
2022-08-01T13:01:43.054Z,35.20
2022-08-01T13:06:45.420Z,35.10
2022-08-01T13:12:03.938Z,34.90
2022-08-01T13:17:14.804Z,34.90
2022-08-01T13:22:18.184Z,35.10
2022-08-01T13:27:24.913Z,35.30
2022-08-01T13:32:30.052Z,35.50
2022-08-01T13:37:33.620Z,35.80
2022-08-01T13:42:36.908Z,35.90
2022-08-01T13:47:39.234Z,36.10
2022-08-01T13:53:01.539Z,36.10
2022-08-01T13:58:04.288Z,36.00
2022-08-01T14:03:06.722Z,35.90
2022-08-01T14:08:09.705Z,35.80
2022-08-01T14:13:11.898Z,36.00
2022-08-01T14:18:15.826Z,36.30
2022-08-01T14:23:18.228Z,36.50
2022-08-01T14:28:20.622Z,36.50
2022-08-01T14:33:23.160Z,36.20
2022-08-01T14:38:25.339Z,36.00
2022-08-01T14:43:34.329Z,35.80
2022-08-01T14:48:38.765Z,35.40
2022-08-01T14:53:42.947Z,35.20
2022-08-01T14:58:52.799Z,35.00
2022-08-01T15:03:56.744Z,34.90
2022-08-01T15:08:58.930Z,34.80
2022-08-01T15:14:19.483Z,34.50
2022-08-01T15:19:21.743Z,34.50
2022-08-01T15:24:23.938Z,34.40
2022-08-01T15:29:26.196Z,34.10
2022-08-01T15:34:28.461Z,33.80
2022-08-01T15:39:32.081Z,33.40
2022-08-01T15:44:34.853Z,33.10
2022-08-01T15:49:38.354Z,33.10
2022-08-01T15:54:41.342Z,33.00
2022-08-01T15:59:45.491Z,33.00
2022-08-01T16:04:47.700Z,32.80
2022-08-01T16:09:49.934Z,32.70
2022-08-01T16:14:52.139Z,32.60
2022-08-01T16:19:54.412Z,32.50
2022-08-01T16:25:00.610Z,32.30
2022-08-01T16:30:03.407Z,32.10
2022-08-01T16:35:05.844Z,31.90
2022-08-01T16:40:08.307Z,31.70
2022-08-01T16:45:13.738Z,31.50
2022-08-01T16:50:17.017Z,31.50
2022-08-01T16:55:22.589Z,31.30
2022-08-01T17:00:26.158Z,31.40
2022-08-01T17:05:31.276Z,31.30
2022-08-01T17:10:33.613Z,31.30
2022-08-01T17:15:36.630Z,31.30
2022-08-01T17:20:42.810Z,31.20
2022-08-01T17:25:50.771Z,31.10
2022-08-01T17:30:53.024Z,30.70
2022-08-01T17:35:55.236Z,31.00
2022-08-01T17:40:57.380Z,31.00
2022-08-01T17:46:00.261Z,31.00
2022-08-01T17:51:02.794Z,30.90
2022-08-01T17:56:08.061Z,30.90
2022-08-01T18:01:12.901Z,31.00
2022-08-01T18:06:19.431Z,30.90
2022-08-01T18:11:22.548Z,30.90
2022-08-01T18:16:27.239Z,30.80
2022-08-01T18:21:32.085Z,30.60
2022-08-01T18:26:34.249Z,30.50
2022-08-01T18:31:36.349Z,30.50
2022-08-01T18:36:40.395Z,30.40
2022-08-01T18:41:43.272Z,30.30
2022-08-01T18:46:45.599Z,30.20
2022-08-01T18:51:48.392Z,30.00
2022-08-01T18:56:50.546Z,29.10
2022-08-01T19:01:52.693Z,29.70
2022-08-01T19:06:54.962Z,29.50
2022-08-01T19:11:56.963Z,29.30
2022-08-01T19:16:59.122Z,29.10
2022-08-01T19:22:03.866Z,28.80
2022-08-01T19:27:09.238Z,28.40
2022-08-01T19:32:11.801Z,28.30
2022-08-01T19:37:14.784Z,28.10
2022-08-01T19:42:19.231Z,27.90
2022-08-01T19:47:21.780Z,27.70
2022-08-01T19:52:27.237Z,27.40
2022-08-01T19:57:38.776Z,27.50
2022-08-01T20:02:52.737Z,27.40
2022-08-01T20:07:55.089Z,27.00
2022-08-01T20:12:57.776Z,26.60
2022-08-01T20:18:00.675Z,26.80
2022-08-01T20:23:04.460Z,26.50
2022-08-01T20:28:11.780Z,26.40
2022-08-01T20:33:15.212Z,26.00
2022-08-01T20:38:19.482Z,26.00
2022-08-01T20:43:27.415Z,25.80
2022-08-01T20:48:31.162Z,25.60
2022-08-01T20:53:40.788Z,25.50
2022-08-01T20:59:40.038Z,25.30
2022-08-01T21:04:53.608Z,25.20
2022-08-01T21:10:17.630Z,25.10
2022-08-01T21:15:40.240Z,25.00
2022-08-01T21:21:04.557Z,24.90
2022-08-01T21:26:12.318Z,24.80
2022-08-01T21:31:16.095Z,24.90
2022-08-01T21:36:20.074Z,24.90
2022-08-01T21:42:01.519Z,24.90
2022-08-01T21:46:49.994Z,24.90
2022-08-01T21:52:05.201Z,24.90
2022-08-01T21:57:36.665Z,24.70
2022-08-01T22:02:53.702Z,24.80
2022-08-01T22:08:06.993Z,24.60
2022-08-01T22:13:10.010Z,24.70
2022-08-01T22:18:12.422Z,24.70
2022-08-01T22:23:14.781Z,24.60
2022-08-01T22:28:17.938Z,24.60
2022-08-01T22:33:20.580Z,24.50
2022-08-01T22:38:24.236Z,24.60
2022-08-01T22:43:37.268Z,24.40
2022-08-01T22:48:44.295Z,24.20
2022-08-01T22:54:02.440Z,24.10
2022-08-01T22:59:11.237Z,24.30
2022-08-01T23:04:33.046Z,24.30
2022-08-01T23:09:52.803Z,24.20
2022-08-01T23:14:58.145Z,24.00
2022-08-01T23:20:03.188Z,24.00
2022-08-01T23:25:08.482Z,24.00
2022-08-01T23:30:11.812Z,24.20
2022-08-01T23:35:13.961Z,23.90
2022-08-01T23:40:16.568Z,23.90
2022-08-01T23:45:18.780Z,23.80
2022-08-01T23:50:22.344Z,23.90
2022-08-01T23:55:36.888Z,23.40
